Time;durP1;ratioP1;P1;durP2;ratioP2;P2;SDS_P1;SDS_P2;PMS_P1;PMS_P2;Temp;Humidity;BMP_temperature;BMP_pressure;BME280_temperature;BME280_humidity;BME280_pressure;Samples;Min_cycle;Max_cycle;Signal;HPM_P1;HPM_P2
2022/05/07 00:00:27;;;;;;;20.33;9.63;;;12.90;99.90;;;;;;5033374;28;20178;-76
2022/05/07 00:02:53;;;;;;;20.20;10.60;;;12.90;99.90;;;;;;5041691;28;20190;-75
2022/05/07 00:05:19;;;;;;;17.73;11.27;;;12.80;99.90;;;;;;5033090;28;20173;-75
2022/05/07 00:07:46;;;;;;;19.57;11.67;;;12.80;99.90;;;;;;5032410;28;20178;-77
2022/05/07 00:10:12;;;;;;;21.42;11.90;;;12.80;99.90;;;;;;5015160;28;20560;-77
2022/05/07 00:12:37;;;;;;;27.17;12.60;;;12.70;99.90;;;;;;5032573;28;20192;-77
2022/05/07 00:15:03;;;;;;;24.60;13.30;;;12.70;99.90;;;;;;5036530;28;20680;-77
2022/05/07 00:20:13;;;;;;;21.02;11.88;;;12.70;99.90;;;;;;5032921;28;20196;-75
2022/05/07 00:22:39;;;;;;;22.00;11.60;;;12.70;99.90;;;;;;5032350;28;20170;-72
2022/05/07 00:25:05;;;;;;;21.57;12.23;;;12.60;99.90;;;;;;5015134;28;20248;-73
2022/05/07 00:27:31;;;;;;;23.53;11.90;;;12.60;99.90;;;;;;5031767;28;20180;-73
2022/05/07 00:29:57;;;;;;;20.57;10.87;;;12.60;99.90;;;;;;5031406;28;20177;-73
2022/05/07 00:32:22;;;;;;;23.60;12.30;;;12.50;99.90;;;;;;5031939;28;20177;-73
2022/05/07 00:34:48;;;;;;;21.70;11.60;;;12.50;99.90;;;;;;5031536;28;20233;-71
2022/05/07 00:37:14;;;;;;;17.53;10.60;;;12.40;99.90;;;;;;5014061;28;20661;-74
2022/05/07 00:39:39;;;;;;;21.97;10.47;;;12.40;99.90;;;;;;5031156;28;20193;-60
2022/05/07 00:42:06;;;;;;;20.13;10.37;;;12.40;99.90;;;;;;5031451;28;20205;-75
2022/05/07 00:44:33;;;;;;;21.10;10.23;;;12.40;99.90;;;;;;5031448;28;20656;-75
2022/05/07 00:47:14;;;;;;;18.77;10.30;;;12.40;99.90;;;;;;5032268;28;20170;-76
2022/05/07 00:49:41;;;;;;;20.50;10.53;;;12.40;99.90;;;;;;5022708;28;20308;-73
2022/05/07 00:52:07;;;;;;;22.17;10.63;;;12.50;99.90;;;;;;5031219;28;20749;-76
2022/05/07 00:54:33;;;;;;;19.83;11.10;;;12.50;99.90;;;;;;5031313;28;20233;-74
2022/05/07 00:56:59;;;;;;;17.83;11.02;;;12.60;99.90;;;;;;5032193;28;20174;-75
2022/05/07 00:59:26;;;;;;;22.33;10.93;;;12.60;99.90;;;;;;5030378;28;20194;-74
2022/05/07 01:01:52;;;;;;;20.83;10.00;;;12.60;99.90;;;;;;5031703;28;20184;-73
2022/05/07 01:04:17;;;;;;;18.47;10.03;;;12.60;99.90;;;;;;5031674;28;20728;-77
2022/05/07 01:06:44;;;;;;;20.17;9.73;;;12.60;99.90;;;;;;5031651;28;20178;-78
2022/05/07 01:09:11;;;;;;;19.70;10.20;;;12.60;99.90;;;;;;5032443;28;20228;-78
2022/05/07 01:11:37;;;;;;;17.57;9.57;;;12.70;99.90;;;;;;5032118;28;20182;-78
2022/05/07 01:14:02;;;;;;;14.70;9.30;;;12.60;99.90;;;;;;5032369;28;20265;-77
2022/05/07 01:16:28;;;;;;;19.33;9.20;;;12.70;99.90;;;;;;5013999;28;20312;-78
2022/05/07 01:18:54;;;;;;;14.40;8.20;;;12.70;99.90;;;;;;5032083;28;20557;-77
2022/05/07 01:21:20;;;;;;;23.43;9.13;;;12.70;99.90;;;;;;5031538;28;20629;-77
2022/05/07 01:23:47;;;;;;;17.63;8.33;;;12.70;99.90;;;;;;5030806;28;20174;-77
2022/05/07 01:26:14;;;;;;;13.15;8.27;;;12.70;99.90;;;;;;5031257;28;20181;-75
2022/05/07 01:28:40;;;;;;;12.80;8.25;;;12.70;99.90;;;;;;5030944;28;20186;-78
2022/05/07 01:31:06;;;;;;;16.67;8.35;;;12.80;99.90;;;;;;5031199;28;20189;-78
2022/05/07 01:33:34;;;;;;;16.05;7.65;;;12.80;99.90;;;;;;5031170;28;20687;-75
2022/05/07 01:36:03;;;;;;;16.83;7.60;;;12.70;99.90;;;;;;5031593;28;20213;-75
2022/05/07 01:38:30;;;;;;;10.87;6.47;;;12.70;99.90;;;;;;5014458;28;20178;-60
2022/05/07 01:40:56;;;;;;;10.73;4.70;;;12.80;99.90;;;;;;5030604;28;20708;-59
2022/05/07 01:43:23;;;;;;;8.23;5.25;;;12.70;99.90;;;;;;5031233;28;20169;-69
2022/05/07 01:45:49;;;;;;;8.10;4.90;;;12.70;99.90;;;;;;5030027;28;20224;-70
2022/05/07 01:48:14;;;;;;;8.82;5.03;;;12.70;99.90;;;;;;5029847;28;20220;-69
2022/05/07 01:50:42;;;;;;;8.60;4.72;;;12.70;99.90;;;;;;5029825;28;20182;-68
2022/05/07 01:53:10;;;;;;;5.72;3.65;;;12.70;99.90;;;;;;5030219;28;20170;-70
2022/05/07 01:55:36;;;;;;;6.97;3.97;;;12.60;99.90;;;;;;5011574;28;20952;-69
2022/05/07 01:58:02;;;;;;;7.47;4.10;;;12.70;99.90;;;;;;5030155;28;20169;-68
2022/05/07 02:00:30;;;;;;;5.72;2.95;;;12.60;99.90;;;;;;5030798;28;20177;-68
2022/05/07 02:02:56;;;;;;;5.80;2.93;;;12.60;99.90;;;;;;5011845;28;20201;-68
2022/05/07 02:05:23;;;;;;;7.57;2.90;;;12.60;99.90;;;;;;5030440;28;20170;-68
2022/05/07 02:07:48;;;;;;;7.15;2.70;;;12.60;99.90;;;;;;5031235;28;20205;-68
2022/05/07 02:10:14;;;;;;;5.10;2.50;;;12.60;99.90;;;;;;5030213;28;20640;-68
2022/05/07 02:12:40;;;;;;;6.15;2.80;;;12.60;99.90;;;;;;5019270;28;20209;-69
2022/05/07 02:15:06;;;;;;;6.72;2.70;;;12.60;99.90;;;;;;5029850;28;20208;-68
2022/05/07 02:17:32;;;;;;;5.25;2.50;;;12.60;99.90;;;;;;5029497;28;20173;-68
2022/05/07 02:19:57;;;;;;;3.58;1.92;;;12.60;99.90;;;;;;5032083;28;20237;-68
2022/05/07 02:22:24;;;;;;;4.63;2.40;;;12.60;99.90;;;;;;5039287;28;20176;-69
2022/05/07 02:24:51;;;;;;;5.00;2.15;;;12.60;99.90;;;;;;5031061;28;20166;-67
2022/05/07 02:27:17;;;;;;;4.70;1.90;;;12.60;99.90;;;;;;5031175;28;20170;-73
2022/05/07 02:29:43;;;;;;;5.35;2.17;;;12.50;99.90;;;;;;5030723;28;20232;-71
2022/05/07 02:32:13;;;;;;;6.72;2.40;;;12.50;99.90;;;;;;5030884;28;20240;-72
2022/05/07 02:34:40;;;;;;;4.07;1.97;;;12.50;99.90;;;;;;5030642;28;20231;-73
2022/05/07 02:37:06;;;;;;;3.45;2.05;;;12.50;99.90;;;;;;5030988;28;20170;-74
2022/05/07 02:39:32;;;;;;;4.80;1.95;;;12.50;99.90;;;;;;5030190;28;20628;-73
2022/05/07 02:44:43;;;;;;;2.33;1.70;;;12.60;99.90;;;;;;5029972;28;20659;-74
2022/05/07 02:47:08;;;;;;;9.00;1.40;;;12.60;99.90;;;;;;5030439;28;20198;-73
2022/05/07 02:49:35;;;;;;;3.03;1.40;;;12.50;99.90;;;;;;5029773;28;20181;-72
2022/05/07 02:52:00;;;;;;;3.93;1.70;;;12.50;99.90;;;;;;5030222;28;20173;-73
2022/05/07 02:54:27;;;;;;;3.08;1.65;;;12.50;99.90;;;;;;5029943;28;20174;-72
2022/05/07 02:56:54;;;;;;;2.28;1.20;;;12.50;99.90;;;;;;5029820;28;20206;-74
2022/05/07 02:59:19;;;;;;;4.57;1.60;;;12.50;99.90;;;;;;5015254;28;20247;-74
2022/05/07 03:01:45;;;;;;;2.50;1.67;;;12.60;99.90;;;;;;5034165;28;20755;-76
2022/05/07 03:04:11;;;;;;;3.03;1.40;;;12.50;99.90;;;;;;5032899;28;20633;-75
2022/05/07 03:06:37;;;;;;;3.50;1.60;;;12.50;99.90;;;;;;5034214;28;20655;-74
2022/05/07 03:09:04;;;;;;;4.00;1.27;;;12.50;99.90;;;;;;5031463;28;20174;-75
2022/05/07 03:11:33;;;;;;;4.38;1.50;;;12.50;99.90;;;;;;5031296;28;20186;-74
2022/05/07 03:14:02;;;;;;;4.10;1.50;;;12.60;99.90;;;;;;5033732;28;20181;-75
2022/05/07 03:16:28;;;;;;;4.63;1.43;;;12.50;99.90;;;;;;5035999;28;20753;-75
2022/05/07 03:18:54;;;;;;;3.00;1.50;;;12.50;99.90;;;;;;5034218;28;20264;-75
2022/05/07 03:21:19;;;;;;;3.85;1.40;;;12.60;99.90;;;;;;5032819;28;20538;-74
2022/05/07 03:23:46;;;;;;;1.88;1.20;;;12.60;99.90;;;;;;5033123;28;20624;-72
2022/05/07 03:26:12;;;;;;;4.18;1.33;;;12.60;99.90;;;;;;5032622;28;20178;-72
2022/05/07 03:28:38;;;;;;;4.28;1.30;;;12.60;99.90;;;;;;5036206;28;20184;-72
2022/05/07 03:31:04;;;;;;;3.05;1.40;;;12.60;99.90;;;;;;5032173;28;20220;-72
2022/05/07 03:33:30;;;;;;;5.83;1.30;;;12.60;99.90;;;;;;5032084;28;20186;-73
2022/05/07 03:35:56;;;;;;;2.00;1.15;;;12.60;99.90;;;;;;5032212;28;20220;-72
2022/05/07 03:38:22;;;;;;;1.88;1.08;;;12.50;99.90;;;;;;5032068;28;20170;-73
2022/05/07 03:40:48;;;;;;;2.22;1.05;;;12.50;99.90;;;;;;5020652;28;20217;-73
2022/05/07 03:43:14;;;;;;;2.03;1.20;;;12.50;99.90;;;;;;5031248;28;20643;-73
2022/05/07 03:45:40;;;;;;;1.23;0.82;;;12.50;99.90;;;;;;5031373;28;20177;-73
2022/05/07 03:48:06;;;;;;;2.30;0.95;;;12.60;99.90;;;;;;5032180;28;20232;-72
2022/05/07 03:50:32;;;;;;;3.70;1.10;;;12.60;99.90;;;;;;5031953;28;20177;-72
2022/05/07 03:55:42;;;;;;;3.13;1.03;;;12.60;99.90;;;;;;5032231;28;20264;-72
2022/05/07 03:58:15;;;;;;;3.50;1.10;;;12.60;99.90;;;;;;5032023;28;20577;-72
2022/05/07 04:00:41;;;;;;;3.97;0.87;;;12.60;99.90;;;;;;5031796;28;20177;-72
2022/05/07 04:03:07;;;;;;;4.80;1.00;;;12.50;99.90;;;;;;5031705;28;20269;-72
2022/05/07 04:05:32;;;;;;;3.17;1.08;;;12.50;99.90;;;;;;5031410;28;20256;-73
2022/05/07 04:07:59;;;;;;;1.98;1.05;;;12.70;99.90;;;;;;5031458;28;20174;-73
2022/05/07 04:10:25;;;;;;;2.88;1.00;;;12.50;99.90;;;;;;5030193;28;20188;-73
2022/05/07 04:12:51;;;;;;;5.85;1.13;;;12.40;99.90;;;;;;5033131;28;20652;-73
2022/05/07 04:15:20;;;;;;;3.30;1.00;;;12.40;99.90;;;;;;5032689;28;20244;-73
2022/05/07 04:17:46;;;;;;;3.35;0.98;;;12.30;99.90;;;;;;5031934;28;20208;-73
2022/05/07 04:20:12;;;;;;;4.30;1.20;;;12.30;99.90;;;;;;5030791;28;20182;-72
2022/05/07 04:22:39;;;;;;;3.73;1.50;;;12.20;99.90;;;;;;5031330;28;20256;-72
2022/05/07 04:25:08;;;;;;;3.47;1.20;;;12.20;99.90;;;;;;5031243;28;20261;-73
2022/05/07 04:27:34;;;;;;;4.50;1.20;;;12.10;99.90;;;;;;5032713;28;20170;-70
2022/05/07 04:30:00;;;;;;;4.07;1.27;;;12.10;99.90;;;;;;5031915;28;20193;-71
2022/05/07 04:32:27;;;;;;;4.65;1.08;;;12.00;99.90;;;;;;5030652;28;20182;-72
2022/05/07 04:34:52;;;;;;;3.93;1.30;;;12.00;99.90;;;;;;5032032;28;20229;-73
2022/05/07 04:37:19;;;;;;;7.63;1.60;;;12.00;99.90;;;;;;5031819;28;20205;-72
2022/05/07 04:39:46;;;;;;;2.50;1.20;;;11.90;99.90;;;;;;5031630;28;20170;-70
2022/05/07 04:42:12;;;;;;;1.67;1.13;;;11.80;99.90;;;;;;5030747;28;20218;-71
2022/05/07 04:44:37;;;;;;;2.43;1.20;;;11.90;99.90;;;;;;5030948;28;20543;-71
2022/05/07 04:47:04;;;;;;;2.90;1.50;;;11.80;99.90;;;;;;5032200;28;20193;-71
2022/05/07 04:49:30;;;;;;;4.63;1.50;;;11.80;99.90;;;;;;5032387;28;20232;-71
2022/05/07 04:51:56;;;;;;;1.73;1.30;;;11.80;99.90;;;;;;5031246;28;20222;-71
2022/05/07 04:54:22;;;;;;;4.00;1.50;;;11.70;99.90;;;;;;5032332;28;20162;-72
2022/05/07 04:56:49;;;;;;;4.57;1.50;;;11.60;99.90;;;;;;5030474;28;20713;-74
2022/05/07 04:59:16;;;;;;;3.27;1.43;;;11.60;99.90;;;;;;5031319;28;20174;-73
2022/05/07 05:01:42;;;;;;;2.17;1.43;;;11.60;99.90;;;;;;5030169;28;20332;-73
2022/05/07 05:04:08;;;;;;;5.27;1.40;;;11.60;99.90;;;;;;5030657;28;20264;-73
2022/05/07 05:06:34;;;;;;;2.17;1.27;;;11.60;99.90;;;;;;5030933;28;20204;-73
2022/05/07 05:09:00;;;;;;;8.20;1.60;;;11.60;99.90;;;;;;5031986;28;20624;-73
2022/05/07 05:11:25;;;;;;;4.00;1.60;;;11.50;99.90;;;;;;5030798;28;20178;-72
2022/05/07 05:13:51;;;;;;;3.53;1.40;;;11.50;99.90;;;;;;5030997;28;20178;-72
2022/05/07 05:16:17;;;;;;;2.10;1.50;;;11.50;99.90;;;;;;5030495;28;20213;-72
2022/05/07 05:18:44;;;;;;;5.37;1.80;;;11.50;99.90;;;;;;5030343;28;20257;-64
2022/05/07 05:21:10;;;;;;;6.93;2.10;;;11.50;99.90;;;;;;5031218;28;20181;-69
2022/05/07 05:23:35;;;;;;;2.10;1.60;;;11.50;99.90;;;;;;5030648;28;20582;-69
2022/05/07 05:26:01;;;;;;;3.13;1.50;;;11.50;99.90;;;;;;5030928;28;20637;-71
2022/05/07 05:28:27;;;;;;;2.00;1.30;;;11.60;99.90;;;;;;5030534;28;20663;-71
2022/05/07 05:30:52;;;;;;;2.57;1.37;;;11.50;99.90;;;;;;5029884;28;20721;-71
2022/05/07 05:33:19;;;;;;;3.77;1.53;;;11.50;99.90;;;;;;5028834;28;20174;-71
2022/05/07 05:35:45;;;;;;;5.37;1.60;;;11.50;99.90;;;;;;5027487;28;20214;-71
2022/05/07 05:38:11;;;;;;;2.10;1.37;;;11.60;99.90;;;;;;5030073;28;20584;-69
2022/05/07 05:40:36;;;;;;;6.47;1.50;;;11.60;99.90;;;;;;5029642;28;20213;-70
2022/05/07 05:43:02;;;;;;;2.87;1.50;;;11.60;99.90;;;;;;5013051;28;20170;-69
2022/05/07 05:45:28;;;;;;;2.87;1.60;;;11.60;99.90;;;;;;5030502;28;20546;-69
2022/05/07 05:47:54;;;;;;;2.43;1.73;;;11.60;99.90;;;;;;5030656;28;20301;-70
2022/05/07 05:50:20;;;;;;;3.60;1.70;;;11.70;99.90;;;;;;5011899;28;20611;-70
2022/05/07 05:52:46;;;;;;;4.40;1.70;;;11.70;99.90;;;;;;5030146;28;20166;-69
2022/05/07 05:55:12;;;;;;;2.07;1.70;;;11.70;99.90;;;;;;5012209;28;20216;-69
2022/05/07 05:57:38;;;;;;;3.33;1.90;;;11.70;99.90;;;;;;5030329;28;20181;-70
2022/05/07 06:00:07;;;;;;;3.93;1.60;;;11.80;99.90;;;;;;5030125;28;20629;-69
2022/05/07 06:02:33;;;;;;;6.10;1.77;;;11.90;99.90;;;;;;5030755;28;20243;-69
2022/05/07 06:04:59;;;;;;;6.40;1.80;;;11.90;99.90;;;;;;5029875;28;20244;-70
2022/05/07 06:07:25;;;;;;;2.80;1.50;;;11.90;99.90;;;;;;5030265;28;20628;-69
2022/05/07 06:09:50;;;;;;;5.38;1.73;;;12.00;99.90;;;;;;5030234;28;20182;-69
2022/05/07 06:12:16;;;;;;;6.47;1.90;;;12.00;99.90;;;;;;5030065;28;20177;-69
2022/05/07 06:14:42;;;;;;;4.03;1.63;;;12.10;99.90;;;;;;5029787;28;20676;-70
2022/05/07 06:17:08;;;;;;;3.97;1.80;;;12.10;99.90;;;;;;5028885;28;20664;-71
2022/05/07 06:19:34;;;;;;;2.40;1.60;;;12.10;99.90;;;;;;5029044;28;20617;-72
2022/05/07 06:21:59;;;;;;;3.58;1.55;;;12.20;99.90;;;;;;5011998;28;20182;-72
2022/05/07 06:30:04;;;;;;;1.70;1.17;;;12.40;99.90;;;;;;5029282;28;20227;-72
2022/05/07 06:32:42;;;;;;;1.73;1.47;;;12.40;99.90;;;;;;5019798;28;20180;-72
2022/05/07 06:35:10;;;;;;;3.30;1.33;;;12.50;99.90;;;;;;5023228;28;20241;-72
2022/05/07 06:37:37;;;;;;;4.38;1.65;;;12.50;99.90;;;;;;5029329;28;20181;-70
2022/05/07 06:40:05;;;;;;;2.70;1.65;;;12.50;99.90;;;;;;5028667;28;20239;-71
2022/05/07 06:42:34;;;;;;;4.35;1.42;;;12.60;99.90;;;;;;5029183;28;20660;-71
2022/05/07 06:44:59;;;;;;;2.97;1.30;;;12.60;99.90;;;;;;5030004;28;20182;-71
2022/05/07 06:47:26;;;;;;;3.08;1.75;;;12.70;99.90;;;;;;5011636;28;20236;-72
2022/05/07 06:49:51;;;;;;;3.25;1.27;;;12.70;99.90;;;;;;5029481;28;20213;-74
2022/05/07 06:52:18;;;;;;;2.55;1.42;;;12.80;99.90;;;;;;5028669;28;20214;-74
2022/05/07 06:54:44;;;;;;;4.93;1.75;;;12.80;99.90;;;;;;5029762;28;20182;-74
2022/05/07 06:57:10;;;;;;;4.38;1.60;;;12.80;99.90;;;;;;5029309;28;20248;-73
2022/05/07 06:59:36;;;;;;;4.73;1.73;;;12.90;99.90;;;;;;5030657;28;20523;-72
2022/05/07 07:02:02;;;;;;;4.60;1.95;;;12.90;99.90;;;;;;5030273;28;20265;-72
2022/05/07 07:04:28;;;;;;;4.18;1.48;;;13.00;99.90;;;;;;5029735;28;20218;-72
2022/05/07 07:06:54;;;;;;;3.60;1.67;;;13.00;99.90;;;;;;5029411;28;20219;-67
2022/05/07 07:09:20;;;;;;;5.50;2.88;;;13.10;99.90;;;;;;5028812;28;20554;-68
2022/05/07 07:11:45;;;;;;;5.45;1.75;;;13.10;99.90;;;;;;5029093;28;20569;-64
2022/05/07 07:14:12;;;;;;;3.88;1.52;;;13.10;99.90;;;;;;5027759;28;20182;-61
2022/05/07 07:16:38;;;;;;;3.20;2.55;;;13.20;99.90;;;;;;5028817;28;20544;-62
2022/05/07 07:19:04;;;;;;;5.18;1.75;;;13.30;99.90;;;;;;5029697;28;20253;-61
2022/05/07 07:21:30;;;;;;;3.53;1.60;;;13.40;99.90;;;;;;5028343;28;20268;-66
2022/05/07 07:23:57;;;;;;;4.15;1.50;;;13.40;99.90;;;;;;5028144;28;20193;-59
2022/05/07 07:26:23;;;;;;;7.75;1.58;;;13.50;99.90;;;;;;5030195;28;20227;-59
2022/05/07 07:28:49;;;;;;;7.00;1.35;;;13.60;99.90;;;;;;5028780;28;20181;-61
2022/05/07 07:31:16;;;;;;;3.80;1.42;;;13.70;99.90;;;;;;5028514;28;20170;-60
2022/05/07 07:33:42;;;;;;;3.38;1.27;;;13.80;99.90;;;;;;5028654;28;20197;-60
2022/05/07 07:36:09;;;;;;;4.78;1.60;;;13.80;99.90;;;;;;5028505;28;20305;-60
2022/05/07 07:38:37;;;;;;;5.53;1.30;;;14.00;99.90;;;;;;5015402;28;20244;-60
2022/05/07 07:41:03;;;;;;;4.75;1.60;;;14.00;99.90;;;;;;5039509;28;20272;-61
2022/05/07 07:43:29;;;;;;;4.60;1.40;;;14.10;99.90;;;;;;5018387;28;20251;-60
2022/05/07 07:48:40;;;;;;;2.45;1.23;;;14.20;99.90;;;;;;5029290;28;20266;-58
2022/05/07 07:51:07;;;;;;;3.80;1.20;;;14.30;99.90;;;;;;5032782;28;20245;-57
2022/05/07 07:53:33;;;;;;;3.83;1.58;;;14.20;99.90;;;;;;5032605;28;20221;-58
2022/05/07 07:55:59;;;;;;;3.80;1.60;;;14.30;99.90;;;;;;5032610;28;20213;-57
2022/05/07 07:58:26;;;;;;;2.28;1.00;;;14.40;99.90;;;;;;5014500;28;20174;-58
2022/05/07 08:00:52;;;;;;;5.07;1.60;;;14.50;99.90;;;;;;5032591;28;20273;-57
2022/05/07 08:03:19;;;;;;;2.90;1.20;;;14.60;99.90;;;;;;5032696;28;20700;-60
2022/05/07 08:05:47;;;;;;;3.53;1.83;;;14.70;99.90;;;;;;5033945;28;20645;-58
2022/05/07 08:13:44;;;;;;;4.93;1.70;;;15.00;99.90;;;;;;5032065;28;20176;-58
2022/05/07 08:16:12;;;;;;;5.53;1.73;;;15.20;99.90;;;;;;5031055;28;20294;-58
2022/05/07 08:18:39;;;;;;;4.50;1.58;;;15.20;99.90;;;;;;5031285;28;20617;-58
2022/05/07 08:21:06;;;;;;;4.47;1.52;;;15.40;99.90;;;;;;5031083;28;20181;-60
2022/05/07 08:23:32;;;;;;;6.97;2.53;;;15.80;99.90;;;;;;5030512;28;20731;-59
2022/05/07 08:25:58;;;;;;;6.15;1.70;;;16.60;99.90;;;;;;5030744;28;20178;-58
2022/05/07 08:28:24;;;;;;;4.15;1.40;;;17.50;99.90;;;;;;5030524;28;20724;-58
2022/05/07 08:30:53;;;;;;;6.35;1.30;;;18.50;99.90;;;;;;5031800;28;20202;-58
2022/05/07 08:33:19;;;;;;;4.63;1.35;;;19.40;99.90;;;;;;5031247;28;20176;-69
2022/05/07 08:35:45;;;;;;;1.98;1.15;;;19.50;99.90;;;;;;5032348;28;20289;-58
2022/05/07 08:38:11;;;;;;;4.05;1.13;;;20.60;99.90;;;;;;5032195;28;20174;-59
2022/05/07 08:40:38;;;;;;;5.55;1.40;;;21.50;99.90;;;;;;5030726;28;20205;-59
2022/05/07 08:43:05;;;;;;;3.40;1.10;;;21.50;99.90;;;;;;5028693;28;20644;-58
2022/05/07 08:45:31;;;;;;;4.00;1.25;;;22.00;99.90;;;;;;5031393;28;20205;-58
2022/05/07 08:47:57;;;;;;;3.28;1.27;;;22.40;99.90;;;;;;5030978;28;20170;-58
2022/05/07 08:50:23;;;;;;;5.85;1.13;;;22.70;99.90;;;;;;5032101;28;20731;-57
2022/05/07 08:52:52;;;;;;;14.63;9.35;;;23.20;99.90;;;;;;5030721;28;20265;-57
2022/05/07 08:55:21;;;;;;;5.65;1.52;;;23.40;99.90;;;;;;5027621;28;20224;-57
2022/05/07 08:57:48;;;;;;;6.07;1.50;;;22.50;99.90;;;;;;5030884;28;20621;-57
2022/05/07 09:00:20;;;;;;;5.97;1.25;;;21.90;99.90;;;;;;5031413;28;20840;-57
2022/05/07 09:02:49;;;;;;;3.67;1.00;;;21.50;99.90;;;;;;5011228;28;20174;-57
2022/05/07 09:05:20;;;;;;;2.70;0.93;;;21.60;99.90;;;;;;5012176;28;20170;-57
2022/05/07 09:07:59;;;;;;;6.32;1.25;;;21.50;99.90;;;;;;5022120;28;20193;-57
2022/05/07 09:10:26;;;;;;;2.65;0.80;;;21.50;99.90;;;;;;5030599;28;20227;-57
2022/05/07 09:12:52;;;;;;;6.32;1.38;;;21.50;99.90;;;;;;5031118;28;20620;-57
2022/05/07 09:15:18;;;;;;;3.95;1.08;;;21.10;99.90;;;;;;5030990;28;20270;-57
2022/05/07 09:17:47;;;;;;;4.80;1.40;;;21.20;99.90;;;;;;5030534;28;20186;-57
2022/05/07 09:20:19;;;;;;;6.75;1.10;;;21.50;99.90;;;;;;5031221;28;20173;-57
2022/05/07 09:22:53;;;;;;;5.85;1.13;;;21.80;99.90;;;;;;5030957;28;20173;-57
2022/05/07 09:25:26;;;;;;;3.20;1.00;;;22.00;99.90;;;;;;5013326;28;20170;-57
2022/05/07 09:27:59;;;;;;;2.63;1.00;;;22.10;99.90;;;;;;5030446;28;20174;-57
2022/05/07 09:30:27;;;;;;;5.32;1.20;;;22.20;99.90;;;;;;5031574;28;20231;-57
2022/05/07 09:32:55;;;;;;;2.85;1.15;;;22.30;99.90;;;;;;5031463;28;20177;-57
2022/05/07 09:38:14;;;;;;;1.90;1.10;;;22.00;99.90;;;;;;5031336;28;20614;-57
2022/05/07 09:40:42;;;;;;;2.58;0.90;;;22.40;99.90;;;;;;5029451;28;20290;-57
2022/05/07 09:43:17;;;;;;;3.33;1.00;;;22.50;99.90;;;;;;5029582;28;20170;-57
2022/05/07 09:45:44;;;;;;;2.72;1.08;;;22.60;99.90;;;;;;5029411;28;20204;-57
2022/05/07 09:48:12;;;;;;;3.33;0.80;;;22.80;99.90;;;;;;5029613;28;20170;-57
2022/05/07 09:58:36;;;;;;;2.80;1.00;;;23.10;99.90;;;;;;5031144;28;20215;-57
2022/05/07 10:01:25;;;;;;;4.05;1.00;;;23.50;99.90;;;;;;5031036;28;20257;-57
2022/05/07 10:04:20;;;;;;;3.28;1.00;;;23.30;99.90;;;;;;5031061;28;20640;-57
2022/05/07 10:07:09;;;;;;;5.47;0.93;;;23.40;99.90;;;;;;5030774;28;20168;-57
2022/05/07 10:09:38;;;;;;;3.47;0.98;;;22.80;99.90;;;;;;5011276;28;20245;-57
2022/05/07 10:12:04;;;;;;;5.97;1.10;;;23.30;99.90;;;;;;5011233;28;20179;-57
2022/05/07 10:14:31;;;;;;;1.92;0.70;;;23.70;99.90;;;;;;5011069;28;20206;-57
2022/05/07 10:17:07;;;;;;;3.38;1.10;;;24.00;99.90;;;;;;5011111;28;20222;-57
2022/05/07 10:19:40;;;;;;;2.60;0.80;;;24.00;99.90;;;;;;5010971;28;20198;-57
2022/05/07 10:22:21;;;;;;;3.42;0.98;;;24.00;99.90;;;;;;5010878;28;20467;-57
2022/05/07 10:25:00;;;;;;;2.10;0.90;;;24.00;99.90;;;;;;5010971;28;20166;-57
2022/05/07 10:27:32;;;;;;;2.67;0.63;;;24.40;99.90;;;;;;5011036;28;20253;-57
2022/05/07 10:30:04;;;;;;;5.07;0.75;;;24.70;99.90;;;;;;5011349;28;20197;-57
2022/05/07 10:32:30;;;;;;;2.78;0.90;;;25.20;99.90;;;;;;5011065;28;20178;-57
2022/05/07 10:34:56;;;;;;;3.10;0.88;;;25.20;99.90;;;;;;5010916;28;20208;-57
2022/05/07 10:37:22;;;;;;;2.95;0.85;;;24.70;99.90;;;;;;5010975;28;20171;-57
2022/05/07 10:39:52;;;;;;;4.25;1.13;;;24.80;99.90;;;;;;5010757;28;20177;-57
2022/05/07 10:42:19;;;;;;;2.35;0.90;;;25.50;99.90;;;;;;5010733;28;20509;-57
2022/05/07 10:44:45;;;;;;;3.70;1.08;;;26.30;99.90;;;;;;5010908;28;20193;-57
2022/05/07 10:47:17;;;;;;;5.15;1.10;;;26.60;99.90;;;;;;5010862;28;20641;-58
2022/05/07 10:50:05;;;;;;;2.38;0.88;;;26.80;99.90;;;;;;5010768;28;20262;-58
2022/05/07 10:52:33;;;;;;;2.13;0.90;;;27.00;99.90;;;;;;5010760;28;20190;-57
2022/05/07 10:55:05;;;;;;;2.13;0.90;;;26.30;99.90;;;;;;5010640;28;20205;-57
2022/05/07 10:57:44;;;;;;;2.97;1.05;;;25.60;99.90;;;;;;5010835;28;20197;-57
2022/05/07 11:00:13;;;;;;;2.67;1.13;;;24.80;99.90;;;;;;5010610;28;20173;-57
2022/05/07 11:02:39;;;;;;;3.05;0.98;;;24.00;99.90;;;;;;5010683;28;20617;-57
2022/05/07 11:05:05;;;;;;;2.05;1.55;;;23.60;99.90;;;;;;5010621;28;20258;-57
2022/05/07 11:07:32;;;;;;;2.85;1.10;;;24.90;99.90;;;;;;5010749;28;20677;-57
2022/05/07 11:09:58;;;;;;;2.75;0.88;;;25.40;99.90;;;;;;5010908;28;20213;-57
2022/05/07 11:12:26;;;;;;;6.05;1.33;;;26.10;99.90;;;;;;5010522;28;20185;-57
2022/05/07 11:14:52;;;;;;;8.50;1.15;;;27.00;99.90;;;;;;5010277;28;20666;-58
2022/05/07 11:17:29;;;;;;;2.90;1.40;;;27.50;99.90;;;;;;5010596;28;20187;-57
2022/05/07 11:19:55;;;;;;;3.10;1.00;;;26.50;99.90;;;;;;5013902;28;20208;-57
2022/05/07 11:22:33;;;;;;;6.18;1.15;;;26.50;99.90;;;;;;5014465;28;20182;-58
2022/05/07 11:25:03;;;;;;;3.10;0.88;;;25.90;99.90;;;;;;5014341;28;20253;-58
2022/05/07 11:27:33;;;;;;;3.25;1.17;;;27.00;99.90;;;;;;5014121;28;20649;-58
2022/05/07 11:30:00;;;;;;;3.83;0.90;;;27.30;99.90;;;;;;5014231;28;20217;-58
2022/05/07 11:32:39;;;;;;;7.25;1.00;;;26.10;99.90;;;;;;5014369;28;20740;-58
2022/05/07 11:35:06;;;;;;;2.45;1.00;;;24.40;99.90;;;;;;5014073;28;20292;-58
2022/05/07 11:37:42;;;;;;;3.90;1.23;;;23.60;99.90;;;;;;5014066;28;20183;-58
2022/05/07 11:40:14;;;;;;;4.75;1.23;;;25.10;99.90;;;;;;5013610;28;20637;-59
2022/05/07 11:42:43;;;;;;;5.22;1.02;;;26.80;99.90;;;;;;5013964;28;20178;-58
2022/05/07 11:45:31;;;;;;;9.15;1.40;;;26.30;99.90;;;;;;5013852;28;20225;-58
2022/05/07 11:47:59;;;;;;;7.68;1.33;;;25.80;99.90;;;;;;5013765;28;20174;-58
2022/05/07 11:50:31;;;;;;;8.55;1.60;;;24.90;99.90;;;;;;5013870;28;20185;-58
2022/05/07 11:53:12;;;;;;;4.43;1.42;;;25.00;99.90;;;;;;5013823;28;20174;-58
2022/05/07 11:55:38;;;;;;;2.22;0.98;;;25.50;99.90;;;;;;5013544;28;20202;-58
2022/05/07 11:58:23;;;;;;;2.75;0.93;;;25.30;99.90;;;;;;5013637;28;20171;-57
2022/05/07 12:00:55;;;;;;;5.18;1.10;;;25.50;99.90;;;;;;5013565;28;20170;-57
2022/05/07 12:03:26;;;;;;;6.38;1.00;;;24.60;99.90;;;;;;5013440;28;20178;-58
2022/05/07 12:05:53;;;;;;;2.55;0.90;;;23.90;99.90;;;;;;5013435;28;20716;-57
2022/05/07 12:08:21;;;;;;;5.22;0.90;;;24.30;99.90;;;;;;5013322;28;20258;-58
2022/05/07 12:10:53;;;;;;;4.55;1.02;;;26.00;99.90;;;;;;5013188;28;20175;-58
2022/05/07 12:13:20;;;;;;;2.85;1.10;;;27.20;99.90;;;;;;5035804;28;20188;-59
2022/05/07 12:18:30;;;;;;;2.08;0.75;;;26.30;99.90;;;;;;5037482;28;20269;-57
2022/05/07 12:20:57;;;;;;;1.45;0.95;;;25.20;99.90;;;;;;5031196;28;20251;-57
2022/05/07 12:31:37;;;;;;;3.55;1.17;;;25.00;99.90;;;;;;5033098;28;20188;-57
2022/05/07 12:34:04;;;;;;;2.67;0.90;;;25.60;99.90;;;;;;5032397;28;20269;-57
2022/05/07 12:36:31;;;;;;;2.38;0.80;;;25.40;99.90;;;;;;5032710;28;20213;-58
2022/05/07 12:38:59;;;;;;;1.50;0.82;;;25.20;99.90;;;;;;5033164;28;20174;-58
2022/05/07 12:41:29;;;;;;;1.35;0.75;;;26.30;99.90;;;;;;5032481;28;20267;-58
2022/05/07 12:43:57;;;;;;;2.78;0.80;;;27.10;99.90;;;;;;5032498;28;20240;-58
2022/05/07 12:46:24;;;;;;;2.15;0.80;;;26.20;99.90;;;;;;5032612;28;20206;-58
2022/05/07 12:48:50;;;;;;;1.25;0.70;;;26.20;99.90;;;;;;5032458;28;20174;-58
2022/05/07 12:51:16;;;;;;;1.75;0.50;;;27.30;99.90;;;;;;5032452;28;20188;-58
2022/05/07 12:53:42;;;;;;;1.33;0.80;;;28.40;99.90;;;;;;5031324;28;20669;-58
2022/05/07 12:56:08;;;;;;;1.80;0.80;;;27.50;99.90;;;;;;5030949;28;20213;-59
2022/05/07 12:58:34;;;;;;;1.85;0.60;;;28.20;99.90;;;;;;5030494;28;20170;-58
2022/05/07 13:01:00;;;;;;;2.42;0.90;;;29.40;99.90;;;;;;5030971;28;20264;-58
2022/05/07 13:03:26;;;;;;;2.45;0.93;;;30.10;99.90;;;;;;5031205;28;20178;-57
2022/05/07 13:05:52;;;;;;;2.67;0.90;;;28.50;99.90;;;;;;5030149;28;20176;-59
2022/05/07 13:08:18;;;;;;;3.25;1.00;;;29.10;99.90;;;;;;5030415;28;20200;-56
2022/05/07 13:10:44;;;;;;;5.05;1.00;;;28.40;99.90;;;;;;5029732;28;20170;-59
2022/05/07 13:13:10;;;;;;;3.63;0.90;;;28.30;99.90;;;;;;5030052;28;20181;-58
2022/05/07 13:15:36;;;;;;;3.08;0.77;;;28.20;99.90;;;;;;5029648;28;20222;-57
2022/05/07 13:18:02;;;;;;;2.08;0.70;;;27.10;99.90;;;;;;5031717;28;20185;-58
2022/05/07 13:20:28;;;;;;;3.75;0.73;;;28.70;99.90;;;;;;5031552;28;20261;-58
2022/05/07 13:22:54;;;;;;;1.83;0.77;;;29.00;99.90;;;;;;5030966;28;20636;-58
2022/05/07 13:25:22;;;;;;;2.20;0.70;;;28.20;99.90;;;;;;5031216;28;20244;-58
2022/05/07 13:27:49;;;;;;;1.42;0.60;;;26.60;99.90;;;;;;5030207;28;20277;-57
2022/05/07 13:30:17;;;;;;;3.13;0.90;;;27.20;99.90;;;;;;5029883;28;20166;-57